createdAt,value
2023-05-05T00:00:17.576Z,396.00
2023-05-05T00:01:17.599Z,395.00
2023-05-05T00:02:17.624Z,396.00
2023-05-05T00:03:17.675Z,395.00
2023-05-05T00:04:17.690Z,395.00
2023-05-05T00:05:17.613Z,396.00
2023-05-05T00:06:17.635Z,396.00
2023-05-05T00:07:17.627Z,393.00
2023-05-05T00:08:17.558Z,394.00
2023-05-05T00:09:17.535Z,394.00
2023-05-05T00:10:17.561Z,397.00
2023-05-05T00:11:17.646Z,398.00
2023-05-05T00:12:17.571Z,396.00
2023-05-05T00:13:17.593Z,396.00
2023-05-05T00:14:17.606Z,397.00
2023-05-05T00:15:17.590Z,396.00
2023-05-05T00:16:17.616Z,396.00
2023-05-05T00:17:17.655Z,395.00
2023-05-05T00:18:17.594Z,395.00
2023-05-05T00:19:17.543Z,394.00
2023-05-05T00:20:17.615Z,395.00
2023-05-05T00:21:17.599Z,394.00
2023-05-05T00:22:17.564Z,393.00
2023-05-05T00:23:17.551Z,390.00
2023-05-05T00:24:18.285Z,389.00
2023-05-05T00:25:17.595Z,388.00
2023-05-05T00:26:17.556Z,392.00
2023-05-05T00:27:17.556Z,392.00
2023-05-05T00:28:17.555Z,392.00
2023-05-05T00:29:17.574Z,392.00
2023-05-05T00:30:17.515Z,389.00
2023-05-05T00:31:17.613Z,387.00
2023-05-05T00:32:17.515Z,388.00
2023-05-05T00:33:17.533Z,388.00
2023-05-05T00:34:17.530Z,387.00
2023-05-05T00:35:17.550Z,388.00
2023-05-05T00:36:17.529Z,390.00
2023-05-05T00:37:17.520Z,389.00
2023-05-05T00:38:17.525Z,389.00
2023-05-05T00:39:17.564Z,389.00
2023-05-05T00:40:17.501Z,391.00
2023-05-05T00:41:17.548Z,392.00
2023-05-05T00:42:17.508Z,392.00
2023-05-05T00:43:17.484Z,391.00
2023-05-05T00:44:17.504Z,391.00
2023-05-05T00:45:17.502Z,390.00
2023-05-05T00:46:17.493Z,393.00
2023-05-05T00:47:17.486Z,392.00
2023-05-05T00:48:17.474Z,392.00
2023-05-05T00:49:17.552Z,392.00
2023-05-05T00:50:17.512Z,392.00
2023-05-05T00:51:17.516Z,393.00
2023-05-05T00:52:17.498Z,393.00
2023-05-05T00:53:17.457Z,394.00
2023-05-05T00:54:17.470Z,393.00
2023-05-05T00:55:17.449Z,391.00
2023-05-05T00:56:17.419Z,392.00
2023-05-05T00:57:17.458Z,390.00
2023-05-05T00:58:17.478Z,391.00
2023-05-05T00:59:17.393Z,390.00
2023-05-05T01:00:17.483Z,392.00
2023-05-05T01:01:17.635Z,392.00
2023-05-05T01:02:17.448Z,394.00
2023-05-05T01:03:17.481Z,393.00
2023-05-05T01:04:17.413Z,391.00
2023-05-05T01:05:17.413Z,392.00
2023-05-05T01:06:17.418Z,391.00
2023-05-05T01:07:17.405Z,390.00
2023-05-05T01:08:17.485Z,387.00
2023-05-05T01:09:17.386Z,387.00
2023-05-05T01:10:20.387Z,387.00
2023-05-05T01:11:17.373Z,388.00
2023-05-05T01:12:17.373Z,385.00
2023-05-05T01:13:17.393Z,385.00
2023-05-05T01:14:17.407Z,384.00
2023-05-05T01:15:17.377Z,385.00
2023-05-05T01:16:17.456Z,386.00
2023-05-05T01:17:17.324Z,388.00
2023-05-05T01:18:17.385Z,390.00
2023-05-05T01:19:17.359Z,389.00
2023-05-05T01:20:17.346Z,389.00
2023-05-05T01:21:17.310Z,389.00
2023-05-05T01:22:17.313Z,389.00
2023-05-05T01:23:17.345Z,389.00
2023-05-05T01:24:17.328Z,389.00
2023-05-05T01:25:17.293Z,390.00
2023-05-05T01:26:17.281Z,392.00
2023-05-05T01:27:17.275Z,390.00
2023-05-05T01:28:17.284Z,389.00
2023-05-05T01:29:17.265Z,388.00
2023-05-05T01:30:17.296Z,385.00
2023-05-05T01:31:17.282Z,385.00
2023-05-05T01:32:17.291Z,383.00
2023-05-05T01:33:17.240Z,383.00
2023-05-05T01:34:17.244Z,381.00
2023-05-05T01:35:17.266Z,380.00
2023-05-05T01:36:17.240Z,380.00
2023-05-05T01:37:17.197Z,377.00
2023-05-05T01:38:17.239Z,377.00
2023-05-05T01:39:17.230Z,378.00
2023-05-05T01:40:17.183Z,378.00
2023-05-05T01:41:17.258Z,379.00
2023-05-05T01:42:17.167Z,381.00
2023-05-05T01:43:17.191Z,381.00
2023-05-05T01:44:17.158Z,384.00
2023-05-05T01:45:17.158Z,382.00
2023-05-05T01:46:17.281Z,382.00
2023-05-05T01:47:17.186Z,383.00
2023-05-05T01:48:17.130Z,384.00
2023-05-05T01:49:17.155Z,382.00
2023-05-05T01:50:17.146Z,380.00
2023-05-05T01:51:17.124Z,381.00
2023-05-05T01:52:17.159Z,380.00
2023-05-05T01:53:17.117Z,381.00
2023-05-05T01:54:17.115Z,381.00
2023-05-05T01:55:17.076Z,381.00
2023-05-05T01:56:17.167Z,381.00
2023-05-05T01:57:17.085Z,382.00
2023-05-05T01:58:17.071Z,382.00
2023-05-05T01:59:17.102Z,382.00
2023-05-05T02:00:17.102Z,379.00
2023-05-05T02:01:17.090Z,376.00
2023-05-05T02:02:17.116Z,376.00
2023-05-05T02:03:17.191Z,375.00
2023-05-05T02:04:17.032Z,375.00
2023-05-05T02:05:17.024Z,379.00
2023-05-05T02:06:17.047Z,379.00
2023-05-05T02:07:17.040Z,377.00
2023-05-05T02:08:17.010Z,377.00
2023-05-05T02:09:16.976Z,376.00
2023-05-05T02:10:17.007Z,376.00
2023-05-05T02:11:16.983Z,376.00
2023-05-05T02:12:16.998Z,375.00
2023-05-05T02:13:17.137Z,375.00
2023-05-05T02:14:17.002Z,375.00
2023-05-05T02:15:16.939Z,375.00
2023-05-05T02:16:17.174Z,376.00
2023-05-05T02:17:16.987Z,376.00
2023-05-05T02:18:16.940Z,375.00
2023-05-05T02:19:17.002Z,375.00
2023-05-05T02:20:16.916Z,375.00
2023-05-05T02:21:16.932Z,377.00
2023-05-05T02:22:16.928Z,378.00
2023-05-05T02:23:16.913Z,378.00
2023-05-05T02:24:16.888Z,378.00
2023-05-05T02:25:16.882Z,378.00
2023-05-05T02:26:16.950Z,378.00
2023-05-05T02:27:16.899Z,377.00
2023-05-05T02:28:16.901Z,375.00
2023-05-05T02:29:16.896Z,376.00
2023-05-05T02:30:16.888Z,377.00
2023-05-05T02:31:16.877Z,381.00
2023-05-05T02:32:16.878Z,381.00
2023-05-05T02:33:16.892Z,381.00
2023-05-05T02:34:16.824Z,380.00
2023-05-05T02:35:16.831Z,381.00
2023-05-05T02:36:16.831Z,379.00
2023-05-05T02:37:16.827Z,378.00
2023-05-05T02:38:16.813Z,376.00
2023-05-05T02:39:16.842Z,376.00
2023-05-05T02:40:16.781Z,377.00
2023-05-05T02:41:16.808Z,377.00
2023-05-05T02:42:16.773Z,377.00
2023-05-05T02:43:16.902Z,376.00
2023-05-05T02:44:16.753Z,377.00
2023-05-05T02:45:16.808Z,377.00
2023-05-05T02:46:16.760Z,377.00
2023-05-05T02:47:16.900Z,376.00
2023-05-05T02:48:16.796Z,374.00
2023-05-05T02:49:16.786Z,374.00
2023-05-05T02:50:16.727Z,376.00
2023-05-05T02:51:16.721Z,374.00
2023-05-05T02:52:16.824Z,374.00
2023-05-05T02:53:16.704Z,373.00
2023-05-05T02:54:16.723Z,374.00
2023-05-05T02:55:16.737Z,375.00
2023-05-05T02:56:16.675Z,374.00
2023-05-05T02:57:16.677Z,374.00
2023-05-05T02:58:16.654Z,373.00
2023-05-05T02:59:16.698Z,374.00
2023-05-05T03:00:16.651Z,373.00
2023-05-05T03:01:16.682Z,371.00
2023-05-05T03:02:16.656Z,369.00
2023-05-05T03:03:16.768Z,369.00
2023-05-05T03:04:16.640Z,366.00
2023-05-05T03:05:16.614Z,367.00
2023-05-05T03:06:16.648Z,370.00
2023-05-05T03:07:16.611Z,370.00
2023-05-05T03:08:16.656Z,372.00
2023-05-05T03:09:16.614Z,371.00
2023-05-05T03:10:16.575Z,370.00
2023-05-05T03:11:16.568Z,371.00
2023-05-05T03:12:16.542Z,370.00
2023-05-05T03:13:16.565Z,370.00
2023-05-05T03:14:16.565Z,369.00
2023-05-05T03:15:16.547Z,370.00
2023-05-05T03:16:16.612Z,371.00
2023-05-05T03:17:16.513Z,370.00
2023-05-05T03:18:16.524Z,370.00
2023-05-05T03:19:16.536Z,369.00
2023-05-05T03:20:16.509Z,370.00
2023-05-05T03:21:16.525Z,369.00
2023-05-05T03:22:16.646Z,367.00
2023-05-05T03:23:16.552Z,366.00
2023-05-05T03:24:16.484Z,367.00
2023-05-05T03:25:16.523Z,366.00
2023-05-05T03:26:16.541Z,369.00
2023-05-05T03:27:16.616Z,371.00
2023-05-05T03:28:16.552Z,373.00
2023-05-05T03:29:16.465Z,373.00
2023-05-05T03:30:16.431Z,371.00
2023-05-05T03:31:16.515Z,371.00
2023-05-05T03:32:16.484Z,370.00
2023-05-05T03:33:16.434Z,371.00
2023-05-05T03:34:16.474Z,372.00
2023-05-05T03:35:16.399Z,374.00
2023-05-05T03:36:16.422Z,373.00
2023-05-05T03:37:16.399Z,373.00
2023-05-05T03:38:16.380Z,373.00
2023-05-05T03:39:16.419Z,373.00
2023-05-05T03:40:16.355Z,372.00
2023-05-05T03:41:16.369Z,373.00
2023-05-05T03:42:16.349Z,373.00
2023-05-05T03:43:16.366Z,373.00
2023-05-05T03:44:16.357Z,371.00
2023-05-05T03:45:16.349Z,370.00
2023-05-05T03:46:16.412Z,372.00
2023-05-05T03:47:16.310Z,372.00
2023-05-05T03:48:16.305Z,371.00
2023-05-05T03:49:16.361Z,371.00
2023-05-05T03:50:16.285Z,371.00
2023-05-05T03:51:16.321Z,371.00
2023-05-05T03:52:16.308Z,369.00
2023-05-05T03:53:16.334Z,369.00
2023-05-05T03:54:16.335Z,371.00
2023-05-05T03:55:16.352Z,368.00
2023-05-05T03:56:16.357Z,366.00
2023-05-05T03:57:16.429Z,366.00
2023-05-05T03:58:16.398Z,366.00
2023-05-05T03:59:16.390Z,366.00
2023-05-05T04:00:16.527Z,365.00
2023-05-05T04:01:16.453Z,365.00
2023-05-05T04:02:18.433Z,364.00
2023-05-05T04:03:16.639Z,365.00
2023-05-05T04:04:16.566Z,365.00
2023-05-05T04:05:16.515Z,368.00
2023-05-05T04:06:16.516Z,372.00
2023-05-05T04:07:16.594Z,374.00
2023-05-05T04:08:16.552Z,378.00
2023-05-05T04:09:16.569Z,381.00
2023-05-05T04:10:16.602Z,383.00
2023-05-05T04:11:16.616Z,384.00
2023-05-05T04:12:16.645Z,382.00
2023-05-05T04:13:16.709Z,382.00
2023-05-05T04:14:16.636Z,382.00
2023-05-05T04:15:16.655Z,383.00
2023-05-05T04:16:16.706Z,383.00
2023-05-05T04:17:16.694Z,382.00
2023-05-05T04:18:16.708Z,384.00
2023-05-05T04:19:16.802Z,383.00
2023-05-05T04:20:16.691Z,383.00
2023-05-05T04:21:16.722Z,382.00
2023-05-05T04:22:16.721Z,382.00
2023-05-05T04:23:16.748Z,384.00
2023-05-05T04:24:16.743Z,385.00
2023-05-05T04:25:16.771Z,386.00
2023-05-05T04:26:16.780Z,386.00
2023-05-05T04:27:16.873Z,383.00
2023-05-05T04:28:16.801Z,383.00
2023-05-05T04:29:16.839Z,383.00
2023-05-05T04:30:16.846Z,384.00
2023-05-05T04:31:16.944Z,384.00
2023-05-05T04:32:16.895Z,383.00
2023-05-05T04:33:16.905Z,380.00
2023-05-05T04:34:16.929Z,377.00
2023-05-05T04:35:16.985Z,376.00
2023-05-05T04:36:16.984Z,378.00
2023-05-05T04:37:17.004Z,377.00
2023-05-05T04:38:17.203Z,376.00
2023-05-05T04:39:17.070Z,376.00
2023-05-05T04:40:17.058Z,375.00
2023-05-05T04:41:17.083Z,377.00
2023-05-05T04:42:17.130Z,376.00
2023-05-05T04:43:17.200Z,375.00
2023-05-05T04:44:17.163Z,372.00
2023-05-05T04:45:17.200Z,375.00
2023-05-05T04:46:17.227Z,378.00
2023-05-05T04:47:17.201Z,376.00
2023-05-05T04:48:17.236Z,376.00
2023-05-05T04:49:17.284Z,375.00
2023-05-05T04:50:17.273Z,374.00
2023-05-05T04:51:17.345Z,373.00
2023-05-05T04:52:17.340Z,374.00
2023-05-05T04:53:17.349Z,374.00
2023-05-05T04:54:17.391Z,374.00
2023-05-05T04:55:17.349Z,372.00
2023-05-05T04:56:17.441Z,370.00
2023-05-05T04:57:17.468Z,371.00
2023-05-05T04:58:17.444Z,371.00
2023-05-05T04:59:17.415Z,372.00
2023-05-05T05:00:17.477Z,372.00
2023-05-05T05:01:17.490Z,374.00
2023-05-05T05:02:17.572Z,376.00
2023-05-05T05:03:17.624Z,376.00
2023-05-05T05:04:17.651Z,375.00
2023-05-05T05:05:17.561Z,376.00
2023-05-05T05:06:17.619Z,374.00
2023-05-05T05:07:17.601Z,374.00
2023-05-05T05:08:17.649Z,378.00
2023-05-05T05:09:17.688Z,379.00
2023-05-05T05:10:17.694Z,379.00
2023-05-05T05:11:17.786Z,378.00
2023-05-05T05:12:17.771Z,378.00
2023-05-05T05:13:18.128Z,378.00
2023-05-05T05:14:17.865Z,379.00
2023-05-05T05:15:17.858Z,381.00
2023-05-05T05:16:17.929Z,384.00
2023-05-05T05:17:18.019Z,388.00
2023-05-05T05:18:17.983Z,387.00
2023-05-05T05:19:18.073Z,389.00
2023-05-05T05:20:18.038Z,389.00
2023-05-05T05:21:18.098Z,389.00
2023-05-05T05:22:18.127Z,389.00
2023-05-05T05:23:18.152Z,390.00
2023-05-05T05:24:18.169Z,391.00
2023-05-05T05:25:18.203Z,391.00
2023-05-05T05:26:18.292Z,394.00
2023-05-05T05:27:18.289Z,396.00
2023-05-05T05:28:18.494Z,400.00
2023-05-05T05:29:18.406Z,404.00
2023-05-05T05:30:18.425Z,439.00
2023-05-05T05:31:18.527Z,446.00
2023-05-05T05:32:18.532Z,456.00
2023-05-05T05:33:18.630Z,449.00
2023-05-05T05:34:18.607Z,501.00
2023-05-05T05:35:18.672Z,503.00
2023-05-05T05:36:18.797Z,515.00
2023-05-05T05:37:18.900Z,520.00
2023-05-05T05:38:18.983Z,531.00
2023-05-05T05:39:19.029Z,562.00
2023-05-05T05:40:19.006Z,554.00
2023-05-05T05:41:19.032Z,554.00
2023-05-05T05:42:19.095Z,565.00
2023-05-05T05:43:19.106Z,565.00
2023-05-05T05:44:19.139Z,563.00
2023-05-05T05:45:19.217Z,561.00
2023-05-05T05:46:19.210Z,559.00
2023-05-05T05:47:19.235Z,561.00
2023-05-05T05:48:19.366Z,562.00
2023-05-05T05:49:19.257Z,558.00
2023-05-05T05:50:19.297Z,557.00
2023-05-05T05:51:19.290Z,554.00
2023-05-05T05:52:19.419Z,546.00
2023-05-05T05:53:19.360Z,543.00
2023-05-05T05:54:19.481Z,542.00
2023-05-05T05:55:19.498Z,539.00
2023-05-05T05:56:19.405Z,537.00
2023-05-05T05:57:19.409Z,534.00
2023-05-05T05:58:19.362Z,535.00
2023-05-05T05:59:19.395Z,535.00
2023-05-05T06:00:19.412Z,531.00
2023-05-05T06:01:19.361Z,527.00
2023-05-05T06:02:19.515Z,521.00
2023-05-05T06:03:19.536Z,518.00
2023-05-05T06:04:19.468Z,510.00
2023-05-05T06:05:19.398Z,505.00
2023-05-05T06:06:19.563Z,501.00
2023-05-05T06:07:19.396Z,499.00
2023-05-05T06:08:19.393Z,498.00
2023-05-05T06:09:19.455Z,498.00
2023-05-05T06:10:28.009Z,498.00
2023-05-05T06:11:20.363Z,499.00
2023-05-05T06:12:19.427Z,501.00
2023-05-05T06:13:19.418Z,501.00
2023-05-05T06:14:20.241Z,501.00
2023-05-05T06:15:19.351Z,503.00
2023-05-05T06:16:19.373Z,501.00
2023-05-05T06:17:19.432Z,502.00
2023-05-05T06:18:19.356Z,506.00
2023-05-05T06:19:19.321Z,507.00
2023-05-05T06:20:19.383Z,509.00
2023-05-05T06:21:19.981Z,507.00
2023-05-05T06:22:19.296Z,589.00
2023-05-05T06:23:19.359Z,592.00
2023-05-05T06:24:19.312Z,520.00
2023-05-05T06:25:19.268Z,507.00
2023-05-05T06:26:19.264Z,608.00
2023-05-05T06:27:19.280Z,601.00
2023-05-05T06:28:19.590Z,601.00
2023-05-05T06:29:19.356Z,578.00
2023-05-05T06:30:19.293Z,571.00
2023-05-05T06:31:19.275Z,567.00
2023-05-05T06:32:19.272Z,536.00
2023-05-05T06:33:19.232Z,525.00
2023-05-05T06:34:19.219Z,596.00
2023-05-05T06:35:19.270Z,596.00
2023-05-05T06:36:19.338Z,534.00
2023-05-05T06:37:19.385Z,571.00
2023-05-05T06:38:19.348Z,592.00
2023-05-05T06:39:19.427Z,601.00
2023-05-05T06:40:19.978Z,611.00
2023-05-05T06:41:19.538Z,624.00
2023-05-05T06:42:19.629Z,648.00
2023-05-05T06:43:19.544Z,616.00
2023-05-05T06:44:19.540Z,592.00
2023-05-05T06:45:20.554Z,575.00
2023-05-05T06:46:19.797Z,552.00
2023-05-05T06:47:20.652Z,546.00
2023-05-05T06:48:19.559Z,538.00
2023-05-05T06:49:19.599Z,532.00
2023-05-05T06:50:19.681Z,523.00
2023-05-05T06:51:19.696Z,516.00
2023-05-05T06:52:20.035Z,512.00
2023-05-05T06:53:19.964Z,506.00
2023-05-05T06:54:19.874Z,504.00
2023-05-05T06:55:19.914Z,498.00
2023-05-05T06:56:20.445Z,493.00
2023-05-05T06:57:20.221Z,489.00
2023-05-05T06:58:20.098Z,488.00
2023-05-05T06:59:20.148Z,486.00
2023-05-05T07:00:20.190Z,486.00
2023-05-05T07:01:20.341Z,489.00
2023-05-05T07:02:20.328Z,490.00
2023-05-05T07:03:20.603Z,490.00
2023-05-05T07:04:20.976Z,491.00
2023-05-05T07:05:20.518Z,493.00
2023-05-05T07:06:20.526Z,491.00
2023-05-05T07:07:20.619Z,488.00
2023-05-05T07:08:20.756Z,484.00
2023-05-05T07:09:20.747Z,480.00
2023-05-05T07:10:20.738Z,474.00
2023-05-05T07:11:20.873Z,471.00
2023-05-05T07:12:20.841Z,470.00
2023-05-05T07:13:21.028Z,469.00
2023-05-05T07:14:22.707Z,465.00
2023-05-05T07:15:28.894Z,463.00
2023-05-05T07:16:21.997Z,460.00
2023-05-05T07:17:20.935Z,459.00
2023-05-05T07:18:21.012Z,458.00
2023-05-05T07:19:20.928Z,521.00
2023-05-05T07:20:20.925Z,520.00
2023-05-05T07:21:20.909Z,513.00
2023-05-05T07:22:20.889Z,514.00
2023-05-05T07:23:20.912Z,504.00
2023-05-05T07:24:20.949Z,497.00
2023-05-05T07:25:20.955Z,536.00
2023-05-05T07:26:20.923Z,522.00
2023-05-05T07:27:20.913Z,511.00
2023-05-05T07:28:20.983Z,500.00
2023-05-05T07:29:21.059Z,491.00
2023-05-05T07:30:21.335Z,482.00
2023-05-05T07:31:21.054Z,476.00
2023-05-05T07:32:21.071Z,467.00
2023-05-05T07:33:20.934Z,460.00
2023-05-05T07:34:20.972Z,456.00
2023-05-05T07:35:21.493Z,505.00
2023-05-05T07:36:20.986Z,586.00
2023-05-05T07:37:21.087Z,566.00
2023-05-05T07:38:21.034Z,575.00
2023-05-05T07:39:22.488Z,572.00
2023-05-05T07:40:21.471Z,570.00
2023-05-05T07:41:21.019Z,558.00
2023-05-05T07:42:21.070Z,554.00
2023-05-05T07:43:21.489Z,546.00
2023-05-05T07:44:21.489Z,545.00
2023-05-05T07:45:21.183Z,549.00
2023-05-05T07:46:21.212Z,545.00
2023-05-05T07:47:22.084Z,541.00
2023-05-05T07:48:21.308Z,538.00
2023-05-05T07:49:21.368Z,537.00
2023-05-05T07:50:21.421Z,531.00
2023-05-05T07:51:21.595Z,527.00
2023-05-05T07:52:30.093Z,523.00
2023-05-05T07:53:22.581Z,523.00
2023-05-05T07:54:21.757Z,522.00
2023-05-05T07:55:21.558Z,519.00
2023-05-05T07:56:21.926Z,508.00
2023-05-05T07:57:21.527Z,498.00
2023-05-05T07:58:21.588Z,493.00
2023-05-05T07:59:21.626Z,494.00
2023-05-05T08:00:21.603Z,492.00
2023-05-05T08:01:21.698Z,488.00
2023-05-05T08:02:21.734Z,488.00
2023-05-05T08:03:21.945Z,486.00
2023-05-05T08:04:21.852Z,484.00
2023-05-05T08:05:21.907Z,482.00
2023-05-05T08:06:22.025Z,480.00
2023-05-05T08:07:22.478Z,482.00
2023-05-05T08:08:22.125Z,481.00
2023-05-05T08:09:22.086Z,483.00
2023-05-05T08:10:22.193Z,483.00
2023-05-05T08:11:22.237Z,478.00
2023-05-05T08:12:22.252Z,476.00
2023-05-05T08:13:22.332Z,476.00
2023-05-05T08:14:22.394Z,480.00
2023-05-05T08:15:22.690Z,480.00
2023-05-05T08:16:22.593Z,480.00
2023-05-05T08:17:22.869Z,484.00
2023-05-05T08:18:22.627Z,483.00
2023-05-05T08:19:28.615Z,484.00
2023-05-05T08:20:24.524Z,484.00
2023-05-05T08:21:22.683Z,481.00
2023-05-05T08:22:22.650Z,479.00
2023-05-05T08:23:22.655Z,477.00
2023-05-05T08:24:22.686Z,475.00
2023-05-05T08:25:22.602Z,474.00
2023-05-05T08:26:22.595Z,477.00
2023-05-05T08:27:22.621Z,484.00
2023-05-05T08:28:22.671Z,506.00
2023-05-05T08:29:23.026Z,517.00
2023-05-05T08:30:22.753Z,514.00
2023-05-05T08:31:22.874Z,518.00
2023-05-05T08:32:22.910Z,521.00
2023-05-05T08:33:22.968Z,520.00
2023-05-05T08:34:22.976Z,523.00
2023-05-05T08:35:23.018Z,520.00
2023-05-05T08:36:23.080Z,512.00
2023-05-05T08:37:24.003Z,508.00
2023-05-05T08:38:23.191Z,503.00
2023-05-05T08:39:23.209Z,510.00
2023-05-05T08:40:23.286Z,522.00
2023-05-05T08:41:23.318Z,531.00
2023-05-05T08:42:36.107Z,535.00
2023-05-05T08:43:24.302Z,536.00
2023-05-05T08:44:23.324Z,535.00
2023-05-05T08:45:23.295Z,537.00
2023-05-05T08:46:23.532Z,540.00
2023-05-05T08:47:23.328Z,543.00
2023-05-05T08:48:23.319Z,547.00
2023-05-05T08:49:23.379Z,546.00
2023-05-05T08:50:23.368Z,544.00
2023-05-05T08:51:23.499Z,542.00
2023-05-05T08:52:23.513Z,542.00
2023-05-05T08:53:23.558Z,545.00
2023-05-05T08:54:24.018Z,541.00
2023-05-05T08:55:23.521Z,548.00
2023-05-05T08:56:23.565Z,545.00
2023-05-05T08:57:23.633Z,537.00
2023-05-05T08:58:23.659Z,545.00
2023-05-05T08:59:23.696Z,546.00
2023-05-05T09:00:23.797Z,547.00
2023-05-05T09:01:23.987Z,548.00
2023-05-05T09:02:23.912Z,543.00
2023-05-05T09:03:23.833Z,538.00
2023-05-05T09:04:24.035Z,533.00
2023-05-05T09:05:24.066Z,529.00
2023-05-05T09:06:23.946Z,527.00
2023-05-05T09:07:23.947Z,520.00
2023-05-05T09:08:24.083Z,517.00
2023-05-05T09:09:24.012Z,515.00
2023-05-05T09:10:24.594Z,512.00
2023-05-05T09:11:24.077Z,513.00
2023-05-05T09:12:24.544Z,510.00
2023-05-05T09:13:24.135Z,504.00
2023-05-05T09:14:24.213Z,500.00
2023-05-05T09:15:24.228Z,498.00
2023-05-05T09:16:24.284Z,496.00
2023-05-05T09:17:24.274Z,494.00
2023-05-05T09:18:24.979Z,490.00
2023-05-05T09:19:24.493Z,489.00
2023-05-05T09:20:24.418Z,489.00
2023-05-05T09:21:24.460Z,484.00
2023-05-05T09:22:24.507Z,480.00
2023-05-05T09:23:24.578Z,484.00
2023-05-05T09:24:24.518Z,486.00
2023-05-05T09:25:24.609Z,481.00
2023-05-05T09:26:24.594Z,483.00
2023-05-05T09:27:25.018Z,483.00
2023-05-05T09:28:24.671Z,482.00
2023-05-05T09:29:24.661Z,479.00
2023-05-05T09:30:24.740Z,488.00
2023-05-05T09:31:24.804Z,491.00
2023-05-05T09:32:24.827Z,525.00
2023-05-05T09:33:24.859Z,535.00
2023-05-05T09:34:24.896Z,538.00
2023-05-05T09:35:24.964Z,538.00
2023-05-05T09:36:25.118Z,533.00
2023-05-05T09:37:25.024Z,521.00
2023-05-05T09:38:25.500Z,511.00
2023-05-05T09:39:25.116Z,502.00
2023-05-05T09:40:25.143Z,504.00
2023-05-05T09:41:25.151Z,503.00
2023-05-05T09:42:25.149Z,506.00
2023-05-05T09:43:25.226Z,512.00
2023-05-05T09:44:25.326Z,508.00
2023-05-05T09:45:25.285Z,502.00
2023-05-05T09:46:25.449Z,499.00
2023-05-05T09:47:29.922Z,495.00
2023-05-05T09:48:25.356Z,505.00
2023-05-05T09:49:25.387Z,512.00
2023-05-05T09:50:25.333Z,508.00
2023-05-05T09:51:25.318Z,519.00
2023-05-05T09:52:25.322Z,531.00
2023-05-05T09:53:25.614Z,537.00
2023-05-05T09:54:25.323Z,541.00
2023-05-05T09:55:25.291Z,539.00
2023-05-05T09:56:25.309Z,538.00
2023-05-05T09:57:25.260Z,537.00
2023-05-05T09:58:25.353Z,530.00
2023-05-05T09:59:25.289Z,523.00
2023-05-05T10:00:25.277Z,506.00
2023-05-05T10:01:25.310Z,506.00
2023-05-05T10:02:25.249Z,518.00
2023-05-05T10:03:25.257Z,537.00
2023-05-05T10:04:25.310Z,533.00
2023-05-05T10:05:25.280Z,536.00
2023-05-05T10:06:25.224Z,539.00
2023-05-05T10:07:25.230Z,533.00
2023-05-05T10:08:25.245Z,529.00
2023-05-05T10:09:25.210Z,529.00
2023-05-05T10:10:26.938Z,531.00
2023-05-05T10:11:25.269Z,538.00
2023-05-05T10:12:25.233Z,541.00
2023-05-05T10:13:25.218Z,714.00
2023-05-05T10:14:25.250Z,570.00
2023-05-05T10:15:25.230Z,670.00
2023-05-05T10:16:27.346Z,668.00
2023-05-05T10:17:25.251Z,684.00
2023-05-05T10:18:25.213Z,669.00
2023-05-05T10:19:25.164Z,664.00
2023-05-05T10:20:25.269Z,598.00
2023-05-05T10:21:25.236Z,581.00
2023-05-05T10:22:25.251Z,576.00
2023-05-05T10:23:25.236Z,590.00
2023-05-05T10:24:25.236Z,620.00
2023-05-05T10:25:25.246Z,687.00
2023-05-05T10:26:25.256Z,621.00
2023-05-05T10:27:25.646Z,683.00
2023-05-05T10:28:25.228Z,680.00
2023-05-05T10:29:25.284Z,675.00
2023-05-05T10:30:25.350Z,611.00
2023-05-05T10:31:26.730Z,608.00
2023-05-05T10:32:50.155Z,649.00
2023-05-05T10:33:31.031Z,739.00
2023-05-05T10:34:26.492Z,717.00
2023-05-05T10:35:25.421Z,679.00
2023-05-05T10:36:25.394Z,690.00
2023-05-05T10:37:25.531Z,663.00
2023-05-05T10:38:26.750Z,648.00
2023-05-05T10:39:25.457Z,643.00
2023-05-05T10:40:25.422Z,641.00
2023-05-05T10:41:25.472Z,640.00
2023-05-05T10:42:25.363Z,643.00
2023-05-05T10:43:25.391Z,638.00
2023-05-05T10:44:25.394Z,639.00
2023-05-05T10:45:25.483Z,716.00
2023-05-05T10:46:25.483Z,672.00
2023-05-05T10:47:25.350Z,714.00
2023-05-05T10:48:25.428Z,721.00
2023-05-05T10:49:25.420Z,711.00
2023-05-05T10:50:26.041Z,698.00
2023-05-05T10:51:38.788Z,685.00
2023-05-05T10:52:26.358Z,679.00
2023-05-05T10:53:25.328Z,673.00
2023-05-05T10:54:25.407Z,678.00
2023-05-05T10:55:25.551Z,735.00
2023-05-05T10:56:25.325Z,719.00
2023-05-05T10:57:25.357Z,712.00
2023-05-05T10:58:25.387Z,704.00
2023-05-05T10:59:25.358Z,703.00
2023-05-05T11:00:25.346Z,769.00
2023-05-05T11:01:25.369Z,788.00
2023-05-05T11:02:25.673Z,752.00
2023-05-05T11:03:25.555Z,688.00
2023-05-05T11:04:26.453Z,718.00
2023-05-05T11:05:25.513Z,714.00
2023-05-05T11:06:25.658Z,729.00
2023-05-05T11:07:25.761Z,690.00
2023-05-05T11:08:25.721Z,680.00
2023-05-05T11:09:25.695Z,690.00
2023-05-05T11:10:25.767Z,695.00
2023-05-05T11:11:25.810Z,695.00
2023-05-05T11:12:25.995Z,687.00
2023-05-05T11:13:26.090Z,680.00
2023-05-05T11:14:26.058Z,665.00
2023-05-05T11:15:26.003Z,605.00
2023-05-05T11:16:26.097Z,616.00
2023-05-05T11:17:26.235Z,627.00
2023-05-05T11:18:26.228Z,692.00
2023-05-05T11:19:26.541Z,667.00
2023-05-05T11:20:26.291Z,637.00
2023-05-05T11:21:26.553Z,631.00
2023-05-05T11:22:26.429Z,635.00
2023-05-05T11:23:26.541Z,634.00
2023-05-05T11:24:26.538Z,633.00
2023-05-05T11:25:26.643Z,645.00
2023-05-05T11:26:26.631Z,632.00
2023-05-05T11:27:26.631Z,619.00
2023-05-05T11:28:26.699Z,608.00
2023-05-05T11:29:26.838Z,597.00
2023-05-05T11:30:26.838Z,592.00
2023-05-05T11:31:26.843Z,581.00
2023-05-05T11:32:26.912Z,578.00
2023-05-05T11:33:26.977Z,573.00
2023-05-05T11:34:27.024Z,570.00
2023-05-05T11:35:27.055Z,569.00
2023-05-05T11:36:27.104Z,573.00
2023-05-05T11:37:27.178Z,575.00
2023-05-05T11:38:27.245Z,575.00
2023-05-05T11:39:27.291Z,572.00
2023-05-05T11:40:27.329Z,572.00
2023-05-05T11:41:27.405Z,570.00
2023-05-05T11:42:27.474Z,567.00
2023-05-05T11:43:27.520Z,568.00
2023-05-05T11:44:27.594Z,568.00
2023-05-05T11:45:27.639Z,569.00
2023-05-05T11:46:27.716Z,566.00
2023-05-05T11:47:27.789Z,553.00
2023-05-05T11:48:27.875Z,546.00
2023-05-05T11:49:27.897Z,542.00
2023-05-05T11:50:28.008Z,544.00
2023-05-05T11:51:28.007Z,544.00
2023-05-05T11:52:28.093Z,543.00
2023-05-05T11:53:28.090Z,541.00
2023-05-05T11:54:28.143Z,538.00
2023-05-05T11:55:28.187Z,534.00
2023-05-05T11:56:28.195Z,533.00
2023-05-05T11:57:28.236Z,531.00
2023-05-05T11:58:28.235Z,528.00
2023-05-05T11:59:28.350Z,524.00
2023-05-05T12:00:28.293Z,522.00
2023-05-05T12:01:28.324Z,521.00
2023-05-05T12:02:28.471Z,517.00
2023-05-05T12:03:28.411Z,515.00
2023-05-05T12:04:28.383Z,510.00
2023-05-05T12:05:28.395Z,513.00
2023-05-05T12:06:28.390Z,516.00
2023-05-05T12:07:28.426Z,515.00
2023-05-05T12:08:28.460Z,513.00
2023-05-05T12:09:28.488Z,500.00
2023-05-05T12:10:28.536Z,499.00
2023-05-05T12:11:28.585Z,499.00
2023-05-05T12:12:28.656Z,499.00
2023-05-05T12:13:28.731Z,503.00
2023-05-05T12:14:28.746Z,509.00
2023-05-05T12:15:28.834Z,513.00
2023-05-05T12:16:28.940Z,515.00
2023-05-05T12:17:29.027Z,513.00
2023-05-05T12:18:29.008Z,514.00
2023-05-05T12:19:29.052Z,518.00
2023-05-05T12:20:29.104Z,516.00
2023-05-05T12:21:29.129Z,515.00
2023-05-05T12:22:29.151Z,513.00
2023-05-05T12:23:29.224Z,509.00
2023-05-05T12:24:29.170Z,507.00
2023-05-05T12:25:29.204Z,500.00
2023-05-05T12:26:29.267Z,500.00
2023-05-05T12:27:29.173Z,499.00
2023-05-05T12:28:29.203Z,500.00